Phoenix, Arizona
Traffic Map
Current Weather Conditions
Phoenix, Arizona
Few Clouds
Few Clouds
16°
Feels Like: 16°
Wind Chill: 16° Ceiling: Unl
Heat Index: 16° Visibility: 10mi
Dew Point: Wind: 7mph
Humidity: 36% Direction: 100° (E)
Pressure: 30.09in Gusts: 0mph
Raw Report DataKPHX 221751Z 10006KT 10SM FEW250 16/01 A3009 RMK AO2 SLP182 T01610011 10161 20078 53009
Traffic Incident Summary
Active as of:
Severity:
Category:
InformationThere was an issue retrieving the traffic information for this location. Please try a different location or try again shortly.
Advertisements
Track Severe Weather on mobile